sensor_id;sensor_type;location;lat;lon;timestamp;temperature;humidity
11079;DHT22;5592;49.234;7.268;2023-04-24T00:00:21;10.60;99.90
11079;DHT22;5592;49.234;7.268;2023-04-24T00:02:47;10.60;99.90
11079;DHT22;5592;49.234;7.268;2023-04-24T00:05:16;10.60;99.90
11079;DHT22;5592;49.234;7.268;2023-04-24T00:07:43;10.60;99.90
11079;DHT22;5592;49.234;7.268;2023-04-24T00:10:09;10.50;99.90
11079;DHT22;5592;49.234;7.268;2023-04-24T00:12:35;10.50;99.90
11079;DHT22;5592;49.234;7.268;2023-04-24T00:15:01;10.40;99.90
11079;DHT22;5592;49.234;7.268;2023-04-24T00:17:27;10.40;99.90
11079;DHT22;5592;49.234;7.268;2023-04-24T00:19:53;10.30;99.90
11079;DHT22;5592;49.234;7.268;2023-04-24T00:22:26;10.30;99.90
11079;DHT22;5592;49.234;7.268;2023-04-24T00:24:52;10.20;99.90
11079;DHT22;5592;49.234;7.268;2023-04-24T00:27:18;10.20;99.90
11079;DHT22;5592;49.234;7.268;2023-04-24T00:29:43;10.20;99.90
11079;DHT22;5592;49.234;7.268;2023-04-24T00:32:09;10.10;99.90
11079;DHT22;5592;49.234;7.268;2023-04-24T00:34:34;10.10;99.90
11079;DHT22;5592;49.234;7.268;2023-04-24T00:37:00;10.10;99.90
11079;DHT22;5592;49.234;7.268;2023-04-24T00:39:26;10.10;99.90
11079;DHT22;5592;49.234;7.268;2023-04-24T00:41:52;10.20;99.90
11079;DHT22;5592;49.234;7.268;2023-04-24T00:44:20;10.20;99.90
11079;DHT22;5592;49.234;7.268;2023-04-24T00:46:46;10.30;99.90
11079;DHT22;5592;49.234;7.268;2023-04-24T00:49:14;10.30;99.90
11079;DHT22;5592;49.234;7.268;2023-04-24T00:51:39;10.40;99.90
11079;DHT22;5592;49.234;7.268;2023-04-24T00:54:06;10.30;99.90
11079;DHT22;5592;49.234;7.268;2023-04-24T00:56:31;10.30;99.90
11079;DHT22;5592;49.234;7.268;2023-04-24T00:58:57;10.30;99.90
11079;DHT22;5592;49.234;7.268;2023-04-24T01:01:24;10.30;99.90
11079;DHT22;5592;49.234;7.268;2023-04-24T01:03:51;10.30;99.90
11079;DHT22;5592;49.234;7.268;2023-04-24T01:06:17;10.30;99.90
11079;DHT22;5592;49.234;7.268;2023-04-24T01:08:44;10.10;99.90
11079;DHT22;5592;49.234;7.268;2023-04-24T01:11:11;9.80;99.90
11079;DHT22;5592;49.234;7.268;2023-04-24T01:13:36;9.70;99.90
11079;DHT22;5592;49.234;7.268;2023-04-24T01:16:04;9.60;99.90
11079;DHT22;5592;49.234;7.268;2023-04-24T01:18:30;9.50;99.90
11079;DHT22;5592;49.234;7.268;2023-04-24T01:20:58;9.50;99.90
11079;DHT22;5592;49.234;7.268;2023-04-24T01:23:23;9.40;99.90
11079;DHT22;5592;49.234;7.268;2023-04-24T01:25:49;9.30;99.90
11079;DHT22;5592;49.234;7.268;2023-04-24T01:28:16;9.20;99.90
11079;DHT22;5592;49.234;7.268;2023-04-24T01:30:42;9.20;99.90
11079;DHT22;5592;49.234;7.268;2023-04-24T01:33:08;9.10;99.90
11079;DHT22;5592;49.234;7.268;2023-04-24T01:35:33;9.10;99.90
11079;DHT22;5592;49.234;7.268;2023-04-24T01:37:59;9.00;99.90
11079;DHT22;5592;49.234;7.268;2023-04-24T01:40:25;9.00;99.90
11079;DHT22;5592;49.234;7.268;2023-04-24T01:42:51;9.00;99.90
11079;DHT22;5592;49.234;7.268;2023-04-24T01:45:16;8.90;99.90
11079;DHT22;5592;49.234;7.268;2023-04-24T01:47:42;8.90;99.90
11079;DHT22;5592;49.234;7.268;2023-04-24T01:50:08;8.90;99.90
11079;DHT22;5592;49.234;7.268;2023-04-24T01:52:34;8.90;99.90
11079;DHT22;5592;49.234;7.268;2023-04-24T01:55:02;8.80;99.90
11079;DHT22;5592;49.234;7.268;2023-04-24T01:57:28;8.80;99.90
11079;DHT22;5592;49.234;7.268;2023-04-24T01:59:55;8.80;99.90
11079;DHT22;5592;49.234;7.268;2023-04-24T02:02:21;8.80;99.90
11079;DHT22;5592;49.234;7.268;2023-04-24T02:04:52;8.70;99.90
11079;DHT22;5592;49.234;7.268;2023-04-24T02:07:17;8.70;99.90
11079;DHT22;5592;49.234;7.268;2023-04-24T02:09:43;8.70;99.90
11079;DHT22;5592;49.234;7.268;2023-04-24T02:12:08;8.60;99.90
11079;DHT22;5592;49.234;7.268;2023-04-24T02:14:34;8.60;99.90
11079;DHT22;5592;49.234;7.268;2023-04-24T02:17:00;8.60;99.90
11079;DHT22;5592;49.234;7.268;2023-04-24T02:19:26;8.50;99.90
11079;DHT22;5592;49.234;7.268;2023-04-24T02:21:51;8.50;99.90
11079;DHT22;5592;49.234;7.268;2023-04-24T02:24:17;8.50;99.90
11079;DHT22;5592;49.234;7.268;2023-04-24T02:26:42;8.50;99.90
11079;DHT22;5592;49.234;7.268;2023-04-24T02:29:08;8.50;99.90
11079;DHT22;5592;49.234;7.268;2023-04-24T02:31:33;8.50;99.90
11079;DHT22;5592;49.234;7.268;2023-04-24T02:33:59;8.40;99.90
11079;DHT22;5592;49.234;7.268;2023-04-24T02:36:25;8.30;99.90
11079;DHT22;5592;49.234;7.268;2023-04-24T02:38:50;8.30;99.90
11079;DHT22;5592;49.234;7.268;2023-04-24T02:41:16;8.20;99.90
11079;DHT22;5592;49.234;7.268;2023-04-24T02:43:41;8.00;99.90
11079;DHT22;5592;49.234;7.268;2023-04-24T02:46:07;7.90;99.90
11079;DHT22;5592;49.234;7.268;2023-04-24T02:48:35;7.80;99.90
11079;DHT22;5592;49.234;7.268;2023-04-24T02:51:01;7.60;99.90
11079;DHT22;5592;49.234;7.268;2023-04-24T02:53:29;7.50;99.90
11079;DHT22;5592;49.234;7.268;2023-04-24T02:55:56;7.50;99.90
11079;DHT22;5592;49.234;7.268;2023-04-24T02:58:22;7.40;99.90
11079;DHT22;5592;49.234;7.268;2023-04-24T03:00:56;7.30;99.90
11079;DHT22;5592;49.234;7.268;2023-04-24T03:03:22;7.20;99.90
11079;DHT22;5592;49.234;7.268;2023-04-24T03:05:49;7.10;99.90
11079;DHT22;5592;49.234;7.268;2023-04-24T03:08:14;7.10;99.90
11079;DHT22;5592;49.234;7.268;2023-04-24T03:10:46;6.90;99.90
11079;DHT22;5592;49.234;7.268;2023-04-24T03:13:11;6.90;99.90
11079;DHT22;5592;49.234;7.268;2023-04-24T03:15:37;6.80;99.90
11079;DHT22;5592;49.234;7.268;2023-04-24T03:18:02;6.70;99.90
11079;DHT22;5592;49.234;7.268;2023-04-24T03:20:28;6.60;99.90
11079;DHT22;5592;49.234;7.268;2023-04-24T03:22:54;6.40;99.90
11079;DHT22;5592;49.234;7.268;2023-04-24T03:25:20;6.40;99.90
11079;DHT22;5592;49.234;7.268;2023-04-24T03:27:45;6.40;99.90
11079;DHT22;5592;49.234;7.268;2023-04-24T03:30:14;6.40;99.90
11079;DHT22;5592;49.234;7.268;2023-04-24T03:32:39;6.40;99.90
11079;DHT22;5592;49.234;7.268;2023-04-24T03:35:06;6.50;99.90
11079;DHT22;5592;49.234;7.268;2023-04-24T03:37:33;6.60;99.90
11079;DHT22;5592;49.234;7.268;2023-04-24T03:39:59;6.70;99.90
11079;DHT22;5592;49.234;7.268;2023-04-24T03:42:27;6.80;99.90
11079;DHT22;5592;49.234;7.268;2023-04-24T03:44:53;6.90;99.90
11079;DHT22;5592;49.234;7.268;2023-04-24T03:47:18;6.90;99.90
11079;DHT22;5592;49.234;7.268;2023-04-24T03:49:44;7.00;99.90
11079;DHT22;5592;49.234;7.268;2023-04-24T03:52:10;7.10;99.90
11079;DHT22;5592;49.234;7.268;2023-04-24T03:54:35;7.20;99.90
11079;DHT22;5592;49.234;7.268;2023-04-24T03:57:01;7.20;99.90
11079;DHT22;5592;49.234;7.268;2023-04-24T03:59:27;7.30;99.90
11079;DHT22;5592;49.234;7.268;2023-04-24T04:01:52;7.30;99.90
11079;DHT22;5592;49.234;7.268;2023-04-24T04:04:18;7.40;99.90
11079;DHT22;5592;49.234;7.268;2023-04-24T04:06:43;7.40;99.90
11079;DHT22;5592;49.234;7.268;2023-04-24T04:09:09;7.40;99.90
11079;DHT22;5592;49.234;7.268;2023-04-24T04:11:36;7.40;99.90
11079;DHT22;5592;49.234;7.268;2023-04-24T04:14:01;7.30;99.90
11079;DHT22;5592;49.234;7.268;2023-04-24T04:16:27;7.20;99.90
11079;DHT22;5592;49.234;7.268;2023-04-24T04:18:52;7.20;99.90
11079;DHT22;5592;49.234;7.268;2023-04-24T04:21:21;7.20;99.90
11079;DHT22;5592;49.234;7.268;2023-04-24T04:23:47;7.20;99.90
11079;DHT22;5592;49.234;7.268;2023-04-24T04:26:13;7.20;99.90
11079;DHT22;5592;49.234;7.268;2023-04-24T04:28:38;7.30;99.90
11079;DHT22;5592;49.234;7.268;2023-04-24T04:31:05;7.40;99.90
11079;DHT22;5592;49.234;7.268;2023-04-24T04:33:30;7.40;99.90
11079;DHT22;5592;49.234;7.268;2023-04-24T04:35:56;7.50;99.90
11079;DHT22;5592;49.234;7.268;2023-04-24T04:38:22;7.60;99.90
11079;DHT22;5592;49.234;7.268;2023-04-24T04:40:48;7.60;99.90
11079;DHT22;5592;49.234;7.268;2023-04-24T04:43:13;7.60;99.90
11079;DHT22;5592;49.234;7.268;2023-04-24T04:45:40;7.70;99.90
11079;DHT22;5592;49.234;7.268;2023-04-24T04:48:08;7.70;99.90
11079;DHT22;5592;49.234;7.268;2023-04-24T04:50:34;7.70;99.90
11079;DHT22;5592;49.234;7.268;2023-04-24T04:53:00;7.80;99.90
11079;DHT22;5592;49.234;7.268;2023-04-24T04:55:26;7.80;99.90
11079;DHT22;5592;49.234;7.268;2023-04-24T04:57:52;7.80;99.90
11079;DHT22;5592;49.234;7.268;2023-04-24T05:00:18;7.90;99.90
11079;DHT22;5592;49.234;7.268;2023-04-24T05:02:46;7.90;99.90
11079;DHT22;5592;49.234;7.268;2023-04-24T05:05:13;7.90;99.90
11079;DHT22;5592;49.234;7.268;2023-04-24T05:07:38;7.90;99.90
11079;DHT22;5592;49.234;7.268;2023-04-24T05:10:04;7.90;99.90
11079;DHT22;5592;49.234;7.268;2023-04-24T05:12:37;8.00;99.90
11079;DHT22;5592;49.234;7.268;2023-04-24T05:15:06;7.80;99.90
11079;DHT22;5592;49.234;7.268;2023-04-24T05:17:34;7.70;99.90
11079;DHT22;5592;49.234;7.268;2023-04-24T05:20:00;7.60;99.90
11079;DHT22;5592;49.234;7.268;2023-04-24T05:22:26;7.70;99.90
11079;DHT22;5592;49.234;7.268;2023-04-24T05:24:51;7.60;99.90
11079;DHT22;5592;49.234;7.268;2023-04-24T05:27:17;7.60;99.90
11079;DHT22;5592;49.234;7.268;2023-04-24T05:29:46;7.50;99.90
11079;DHT22;5592;49.234;7.268;2023-04-24T05:32:22;7.50;99.90
11079;DHT22;5592;49.234;7.268;2023-04-24T05:34:47;7.50;99.90
11079;DHT22;5592;49.234;7.268;2023-04-24T05:37:13;7.50;99.90
11079;DHT22;5592;49.234;7.268;2023-04-24T05:39:38;7.50;99.90
11079;DHT22;5592;49.234;7.268;2023-04-24T05:42:06;7.50;99.90
11079;DHT22;5592;49.234;7.268;2023-04-24T05:44:32;7.60;99.90
11079;DHT22;5592;49.234;7.268;2023-04-24T05:46:57;7.90;99.90
11079;DHT22;5592;49.234;7.268;2023-04-24T05:49:27;8.60;99.90
11079;DHT22;5592;49.234;7.268;2023-04-24T05:51:54;9.30;99.90
11079;DHT22;5592;49.234;7.268;2023-04-24T05:54:20;10.70;99.90
11079;DHT22;5592;49.234;7.268;2023-04-24T05:56:47;11.80;99.90
11079;DHT22;5592;49.234;7.268;2023-04-24T05:59:12;13.40;99.90
11079;DHT22;5592;49.234;7.268;2023-04-24T06:01:38;14.50;99.90
11079;DHT22;5592;49.234;7.268;2023-04-24T06:04:04;15.00;99.90
11079;DHT22;5592;49.234;7.268;2023-04-24T06:06:30;15.60;99.90
11079;DHT22;5592;49.234;7.268;2023-04-24T06:08:56;15.70;99.90
11079;DHT22;5592;49.234;7.268;2023-04-24T06:11:22;15.40;99.90
11079;DHT22;5592;49.234;7.268;2023-04-24T06:13:48;15.50;99.90
11079;DHT22;5592;49.234;7.268;2023-04-24T06:16:13;15.20;99.90
11079;DHT22;5592;49.234;7.268;2023-04-24T06:18:39;15.90;99.90
11079;DHT22;5592;49.234;7.268;2023-04-24T06:21:05;17.20;99.90
11079;DHT22;5592;49.234;7.268;2023-04-24T06:23:33;17.70;99.90
11079;DHT22;5592;49.234;7.268;2023-04-24T06:26:01;18.90;99.90
11079;DHT22;5592;49.234;7.268;2023-04-24T06:28:27;19.00;99.90
11079;DHT22;5592;49.234;7.268;2023-04-24T06:30:52;17.20;99.90
11079;DHT22;5592;49.234;7.268;2023-04-24T06:33:19;16.90;99.90
11079;DHT22;5592;49.234;7.268;2023-04-24T06:35:48;17.70;99.90
11079;DHT22;5592;49.234;7.268;2023-04-24T06:38:14;19.10;99.90
11079;DHT22;5592;49.234;7.268;2023-04-24T06:43:21;18.60;99.90
11079;DHT22;5592;49.234;7.268;2023-04-24T06:45:48;16.30;99.90
11079;DHT22;5592;49.234;7.268;2023-04-24T06:48:17;16.70;99.90
11079;DHT22;5592;49.234;7.268;2023-04-24T06:50:42;17.80;99.90
11079;DHT22;5592;49.234;7.268;2023-04-24T06:53:13;17.50;99.90
11079;DHT22;5592;49.234;7.268;2023-04-24T06:55:41;15.70;99.90
11079;DHT22;5592;49.234;7.268;2023-04-24T06:58:13;14.40;99.90
11079;DHT22;5592;49.234;7.268;2023-04-24T07:00:40;13.00;99.90
11079;DHT22;5592;49.234;7.268;2023-04-24T07:03:06;12.30;99.90
11079;DHT22;5592;49.234;7.268;2023-04-24T07:05:36;11.90;99.90
11079;DHT22;5592;49.234;7.268;2023-04-24T07:08:03;11.50;99.90
11079;DHT22;5592;49.234;7.268;2023-04-24T07:10:29;11.00;99.90
11079;DHT22;5592;49.234;7.268;2023-04-24T07:13:01;10.60;99.90
11079;DHT22;5592;49.234;7.268;2023-04-24T07:15:27;10.40;99.90
11079;DHT22;5592;49.234;7.268;2023-04-24T07:17:54;10.20;99.90
11079;DHT22;5592;49.234;7.268;2023-04-24T07:20:20;10.00;99.90
11079;DHT22;5592;49.234;7.268;2023-04-24T07:22:49;10.00;99.90
11079;DHT22;5592;49.234;7.268;2023-04-24T07:25:22;10.30;99.90
11079;DHT22;5592;49.234;7.268;2023-04-24T07:27:48;10.40;99.90
11079;DHT22;5592;49.234;7.268;2023-04-24T07:30:15;10.50;99.90
11079;DHT22;5592;49.234;7.268;2023-04-24T07:32:45;10.80;99.90
11079;DHT22;5592;49.234;7.268;2023-04-24T07:35:16;11.30;99.90
11079;DHT22;5592;49.234;7.268;2023-04-24T07:37:45;11.20;99.90
11079;DHT22;5592;49.234;7.268;2023-04-24T07:40:14;10.90;99.90
11079;DHT22;5592;49.234;7.268;2023-04-24T07:42:41;10.70;99.90
11079;DHT22;5592;49.234;7.268;2023-04-24T07:50:25;9.80;99.90
11079;DHT22;5592;49.234;7.268;2023-04-24T07:52:53;9.60;99.90
11079;DHT22;5592;49.234;7.268;2023-04-24T07:55:19;9.40;99.90
11079;DHT22;5592;49.234;7.268;2023-04-24T07:57:46;9.30;99.90
11079;DHT22;5592;49.234;7.268;2023-04-24T08:00:14;9.30;99.90
11079;DHT22;5592;49.234;7.268;2023-04-24T08:02:41;9.40;99.90
11079;DHT22;5592;49.234;7.268;2023-04-24T08:05:11;9.30;99.90
11079;DHT22;5592;49.234;7.268;2023-04-24T08:07:38;9.40;99.90
11079;DHT22;5592;49.234;7.268;2023-04-24T08:10:07;9.40;99.90
11079;DHT22;5592;49.234;7.268;2023-04-24T08:12:33;9.50;99.90
11079;DHT22;5592;49.234;7.268;2023-04-24T08:14:59;9.30;99.90
11079;DHT22;5592;49.234;7.268;2023-04-24T08:17:30;9.30;99.90
11079;DHT22;5592;49.234;7.268;2023-04-24T08:19:58;9.30;99.90
11079;DHT22;5592;49.234;7.268;2023-04-24T08:22:49;9.50;99.90
11079;DHT22;5592;49.234;7.268;2023-04-24T08:25:15;9.60;99.90
11079;DHT22;5592;49.234;7.268;2023-04-24T08:27:44;9.80;99.90
11079;DHT22;5592;49.234;7.268;2023-04-24T08:30:09;9.70;99.90
11079;DHT22;5592;49.234;7.268;2023-04-24T08:32:36;9.70;99.90
11079;DHT22;5592;49.234;7.268;2023-04-24T08:35:10;9.80;99.90
11079;DHT22;5592;49.234;7.268;2023-04-24T08:37:37;9.80;99.90
11079;DHT22;5592;49.234;7.268;2023-04-24T08:40:07;9.80;99.90
11079;DHT22;5592;49.234;7.268;2023-04-24T08:42:37;9.70;99.90
11079;DHT22;5592;49.234;7.268;2023-04-24T08:45:03;9.60;99.90
11079;DHT22;5592;49.234;7.268;2023-04-24T08:47:29;9.60;99.90
11079;DHT22;5592;49.234;7.268;2023-04-24T08:52:32;9.40;99.90
11079;DHT22;5592;49.234;7.268;2023-04-24T08:54:59;9.40;99.90
11079;DHT22;5592;49.234;7.268;2023-04-24T08:57:26;9.50;99.90
11079;DHT22;5592;49.234;7.268;2023-04-24T08:59:53;9.30;99.90
11079;DHT22;5592;49.234;7.268;2023-04-24T09:02:18;9.30;99.90
11079;DHT22;5592;49.234;7.268;2023-04-24T09:04:45;9.20;99.90
11079;DHT22;5592;49.234;7.268;2023-04-24T09:07:12;9.20;99.90
11079;DHT22;5592;49.234;7.268;2023-04-24T09:09:41;9.20;99.90
11079;DHT22;5592;49.234;7.268;2023-04-24T09:12:07;9.30;99.90
11079;DHT22;5592;49.234;7.268;2023-04-24T09:14:36;9.20;99.90
11079;DHT22;5592;49.234;7.268;2023-04-24T09:17:05;9.20;99.90
11079;DHT22;5592;49.234;7.268;2023-04-24T09:19:31;9.30;99.90
11079;DHT22;5592;49.234;7.268;2023-04-24T09:21:57;9.30;99.90
11079;DHT22;5592;49.234;7.268;2023-04-24T09:24:23;9.20;99.90
11079;DHT22;5592;49.234;7.268;2023-04-24T09:26:55;9.30;99.90
11079;DHT22;5592;49.234;7.268;2023-04-24T09:29:22;9.20;99.90
11079;DHT22;5592;49.234;7.268;2023-04-24T09:31:48;9.00;99.90
11079;DHT22;5592;49.234;7.268;2023-04-24T09:34:14;9.00;99.90
11079;DHT22;5592;49.234;7.268;2023-04-24T09:36:42;9.10;99.90
11079;DHT22;5592;49.234;7.268;2023-04-24T09:39:13;9.00;99.90
11079;DHT22;5592;49.234;7.268;2023-04-24T09:41:47;9.00;99.90
11079;DHT22;5592;49.234;7.268;2023-04-24T09:46:45;9.00;99.90
11079;DHT22;5592;49.234;7.268;2023-04-24T09:49:16;9.10;99.90
11079;DHT22;5592;49.234;7.268;2023-04-24T09:51:42;9.10;99.90
11079;DHT22;5592;49.234;7.268;2023-04-24T09:56:44;9.00;99.90
11079;DHT22;5592;49.234;7.268;2023-04-24T09:59:11;9.00;99.90
11079;DHT22;5592;49.234;7.268;2023-04-24T10:01:37;9.10;99.90
11079;DHT22;5592;49.234;7.268;2023-04-24T10:04:04;9.00;99.90
11079;DHT22;5592;49.234;7.268;2023-04-24T10:06:34;9.10;99.90
11079;DHT22;5592;49.234;7.268;2023-04-24T10:09:01;9.30;99.90
11079;DHT22;5592;49.234;7.268;2023-04-24T10:11:28;9.50;99.90
11079;DHT22;5592;49.234;7.268;2023-04-24T10:13:53;9.60;99.90
11079;DHT22;5592;49.234;7.268;2023-04-24T10:16:21;9.40;99.90
11079;DHT22;5592;49.234;7.268;2023-04-24T10:18:48;9.40;99.90
11079;DHT22;5592;49.234;7.268;2023-04-24T10:21:15;9.40;99.90
11079;DHT22;5592;49.234;7.268;2023-04-24T10:23:42;9.40;99.90
11079;DHT22;5592;49.234;7.268;2023-04-24T10:26:09;9.40;99.90
11079;DHT22;5592;49.234;7.268;2023-04-24T10:28:36;9.40;99.90
11079;DHT22;5592;49.234;7.268;2023-04-24T10:31:02;9.50;99.90
11079;DHT22;5592;49.234;7.268;2023-04-24T10:33:31;9.70;99.90
11079;DHT22;5592;49.234;7.268;2023-04-24T10:35:57;10.00;99.90
11079;DHT22;5592;49.234;7.268;2023-04-24T10:38:26;10.50;99.90
11079;DHT22;5592;49.234;7.268;2023-04-24T10:41:13;11.10;99.90
11079;DHT22;5592;49.234;7.268;2023-04-24T10:43:45;11.60;99.90
11079;DHT22;5592;49.234;7.268;2023-04-24T10:46:19;12.20;99.90
11079;DHT22;5592;49.234;7.268;2023-04-24T10:48:53;12.20;99.90
11079;DHT22;5592;49.234;7.268;2023-04-24T10:51:43;12.00;99.90
11079;DHT22;5592;49.234;7.268;2023-04-24T10:54:34;12.10;99.90
11079;DHT22;5592;49.234;7.268;2023-04-24T11:00:09;12.60;99.90
11079;DHT22;5592;49.234;7.268;2023-04-24T11:02:37;12.20;99.90
11079;DHT22;5592;49.234;7.268;2023-04-24T11:05:04;11.90;99.90
11079;DHT22;5592;49.234;7.268;2023-04-24T11:07:29;11.80;99.90
11079;DHT22;5592;49.234;7.268;2023-04-24T11:09:58;11.60;99.90
11079;DHT22;5592;49.234;7.268;2023-04-24T11:12:26;11.30;99.90
11079;DHT22;5592;49.234;7.268;2023-04-24T11:17:32;11.20;99.90
11079;DHT22;5592;49.234;7.268;2023-04-24T11:20:09;11.20;99.90
11079;DHT22;5592;49.234;7.268;2023-04-24T11:22:37;11.30;99.90
11079;DHT22;5592;49.234;7.268;2023-04-24T11:25:08;11.80;99.90
11079;DHT22;5592;49.234;7.268;2023-04-24T11:27:44;12.00;99.90
11079;DHT22;5592;49.234;7.268;2023-04-24T11:30:11;12.30;99.90
11079;DHT22;5592;49.234;7.268;2023-04-24T11:32:39;12.60;99.90
11079;DHT22;5592;49.234;7.268;2023-04-24T11:35:16;12.50;99.90
11079;DHT22;5592;49.234;7.268;2023-04-24T11:37:43;12.60;99.90
11079;DHT22;5592;49.234;7.268;2023-04-24T11:40:12;12.90;99.90
11079;DHT22;5592;49.234;7.268;2023-04-24T11:42:42;13.00;99.90
11079;DHT22;5592;49.234;7.268;2023-04-24T11:45:21;13.10;99.90
11079;DHT22;5592;49.234;7.268;2023-04-24T11:47:48;13.40;99.90
11079;DHT22;5592;49.234;7.268;2023-04-24T11:50:15;13.60;99.90
11079;DHT22;5592;49.234;7.268;2023-04-24T11:52:46;13.70;99.90
11079;DHT22;5592;49.234;7.268;2023-04-24T11:57:48;13.70;99.90
11079;DHT22;5592;49.234;7.268;2023-04-24T12:00:19;13.20;99.90
11079;DHT22;5592;49.234;7.268;2023-04-24T12:02:46;12.60;99.90
11079;DHT22;5592;49.234;7.268;2023-04-24T12:05:27;11.90;99.90
11079;DHT22;5592;49.234;7.268;2023-04-24T12:07:54;11.60;99.90
11079;DHT22;5592;49.234;7.268;2023-04-24T12:10:24;11.30;99.90
11079;DHT22;5592;49.234;7.268;2023-04-24T12:12:51;11.20;99.90
11079;DHT22;5592;49.234;7.268;2023-04-24T12:15:19;11.10;99.90
11079;DHT22;5592;49.234;7.268;2023-04-24T12:17:45;11.20;99.90
11079;DHT22;5592;49.234;7.268;2023-04-24T12:20:12;11.50;99.90
11079;DHT22;5592;49.234;7.268;2023-04-24T12:22:58;11.90;99.90
11079;DHT22;5592;49.234;7.268;2023-04-24T12:25:28;12.40;99.90
11079;DHT22;5592;49.234;7.268;2023-04-24T12:30:27;13.50;99.90
11079;DHT22;5592;49.234;7.268;2023-04-24T12:32:58;14.00;99.90
11079;DHT22;5592;49.234;7.268;2023-04-24T12:35:27;14.50;99.90
11079;DHT22;5592;49.234;7.268;2023-04-24T12:37:52;14.70;99.90
11079;DHT22;5592;49.234;7.268;2023-04-24T12:40:21;14.00;99.90
11079;DHT22;5592;49.234;7.268;2023-04-24T12:42:51;14.00;99.90
11079;DHT22;5592;49.234;7.268;2023-04-24T12:45:18;14.00;99.90
11079;DHT22;5592;49.234;7.268;2023-04-24T12:47:44;14.30;99.90
11079;DHT22;5592;49.234;7.268;2023-04-24T12:50:14;14.60;99.90
11079;DHT22;5592;49.234;7.268;2023-04-24T12:52:41;14.10;99.90
11079;DHT22;5592;49.234;7.268;2023-04-24T12:55:07;13.90;99.90
11079;DHT22;5592;49.234;7.268;2023-04-24T12:57:34;13.90;99.90
11079;DHT22;5592;49.234;7.268;2023-04-24T13:00:03;13.70;99.90
11079;DHT22;5592;49.234;7.268;2023-04-24T13:02:30;13.50;99.90
11079;DHT22;5592;49.234;7.268;2023-04-24T13:04:57;13.30;99.90
11079;DHT22;5592;49.234;7.268;2023-04-24T13:07:23;13.00;99.90
11079;DHT22;5592;49.234;7.268;2023-04-24T13:09:53;12.70;99.90
11079;DHT22;5592;49.234;7.268;2023-04-24T13:12:20;12.40;99.90
11079;DHT22;5592;49.234;7.268;2023-04-24T13:14:46;12.20;99.90
11079;DHT22;5592;49.234;7.268;2023-04-24T13:17:12;12.10;99.90
11079;DHT22;5592;49.234;7.268;2023-04-24T13:19:40;11.90;99.90
11079;DHT22;5592;49.234;7.268;2023-04-24T13:22:06;11.70;99.90
11079;DHT22;5592;49.234;7.268;2023-04-24T13:24:36;11.90;99.90
11079;DHT22;5592;49.234;7.268;2023-04-24T13:27:03;12.30;99.90
11079;DHT22;5592;49.234;7.268;2023-04-24T13:29:28;12.80;99.90
11079;DHT22;5592;49.234;7.268;2023-04-24T13:31:57;13.30;99.90
11079;DHT22;5592;49.234;7.268;2023-04-24T13:34:23;13.70;99.90
11079;DHT22;5592;49.234;7.268;2023-04-24T13:36:53;14.10;99.90
11079;DHT22;5592;49.234;7.268;2023-04-24T13:39:20;14.10;99.90
11079;DHT22;5592;49.234;7.268;2023-04-24T13:41:46;14.00;99.90
11079;DHT22;5592;49.234;7.268;2023-04-24T13:44:17;13.50;99.90
11079;DHT22;5592;49.234;7.268;2023-04-24T13:46:50;13.40;99.90
11079;DHT22;5592;49.234;7.268;2023-04-24T13:49:20;12.80;99.90
11079;DHT22;5592;49.234;7.268;2023-04-24T13:51:47;12.40;99.90
11079;DHT22;5592;49.234;7.268;2023-04-24T13:54:12;11.90;99.90
11079;DHT22;5592;49.234;7.268;2023-04-24T13:56:39;11.30;99.90
11079;DHT22;5592;49.234;7.268;2023-04-24T13:59:05;10.80;99.90
11079;DHT22;5592;49.234;7.268;2023-04-24T14:01:31;10.40;99.90
11079;DHT22;5592;49.234;7.268;2023-04-24T14:03:57;10.50;99.90
11079;DHT22;5592;49.234;7.268;2023-04-24T14:06:23;10.90;99.90
11079;DHT22;5592;49.234;7.268;2023-04-24T14:08:49;11.40;99.90
11079;DHT22;5592;49.234;7.268;2023-04-24T14:11:16;11.90;99.90
11079;DHT22;5592;49.234;7.268;2023-04-24T14:13:42;12.40;99.90
11079;DHT22;5592;49.234;7.268;2023-04-24T14:16:09;12.80;99.90
11079;DHT22;5592;49.234;7.268;2023-04-24T14:18:35;13.10;99.90
11079;DHT22;5592;49.234;7.268;2023-04-24T14:21:01;13.40;99.90
11079;DHT22;5592;49.234;7.268;2023-04-24T14:23:27;13.40;99.90
11079;DHT22;5592;49.234;7.268;2023-04-24T14:25:53;13.60;99.90
11079;DHT22;5592;49.234;7.268;2023-04-24T14:28:19;13.50;99.90
11079;DHT22;5592;49.234;7.268;2023-04-24T14:30:46;13.80;99.90
11079;DHT22;5592;49.234;7.268;2023-04-24T14:33:11;13.50;99.90
11079;DHT22;5592;49.234;7.268;2023-04-24T14:35:38;13.50;99.90
11079;DHT22;5592;49.234;7.268;2023-04-24T14:38:04;13.40;99.90
11079;DHT22;5592;49.234;7.268;2023-04-24T14:40:29;13.20;99.90
11079;DHT22;5592;49.234;7.268;2023-04-24T14:42:56;13.40;99.90
11079;DHT22;5592;49.234;7.268;2023-04-24T14:45:23;13.30;99.90
11079;DHT22;5592;49.234;7.268;2023-04-24T14:47:49;13.40;99.90
11079;DHT22;5592;49.234;7.268;2023-04-24T14:50:15;13.60;99.90
11079;DHT22;5592;49.234;7.268;2023-04-24T14:52:40;13.60;99.90
11079;DHT22;5592;49.234;7.268;2023-04-24T14:55:06;13.50;99.90
11079;DHT22;5592;49.234;7.268;2023-04-24T14:57:32;13.50;99.90
11079;DHT22;5592;49.234;7.268;2023-04-24T14:59:58;13.50;99.90
11079;DHT22;5592;49.234;7.268;2023-04-24T15:02:24;13.60;99.90
11079;DHT22;5592;49.234;7.268;2023-04-24T15:04:49;13.60;99.90
11079;DHT22;5592;49.234;7.268;2023-04-24T15:07:15;13.50;99.90
11079;DHT22;5592;49.234;7.268;2023-04-24T15:09:40;13.40;99.90
11079;DHT22;5592;49.234;7.268;2023-04-24T15:12:06;13.40;99.90
11079;DHT22;5592;49.234;7.268;2023-04-24T15:14:32;13.20;99.90
11079;DHT22;5592;49.234;7.268;2023-04-24T15:16:57;13.00;99.90
11079;DHT22;5592;49.234;7.268;2023-04-24T15:19:23;13.00;99.90
11079;DHT22;5592;49.234;7.268;2023-04-24T15:21:48;12.80;99.90
11079;DHT22;5592;49.234;7.268;2023-04-24T15:24:14;12.80;99.90
11079;DHT22;5592;49.234;7.268;2023-04-24T15:26:40;12.60;99.90
11079;DHT22;5592;49.234;7.268;2023-04-24T15:29:05;12.70;99.90
11079;DHT22;5592;49.234;7.268;2023-04-24T15:31:31;12.70;99.90
11079;DHT22;5592;49.234;7.268;2023-04-24T15:33:56;12.70;99.90
11079;DHT22;5592;49.234;7.268;2023-04-24T15:36:22;12.70;99.90
11079;DHT22;5592;49.234;7.268;2023-04-24T15:38:48;12.70;99.90
11079;DHT22;5592;49.234;7.268;2023-04-24T15:41:14;12.70;99.90
11079;DHT22;5592;49.234;7.268;2023-04-24T15:43:40;12.60;99.90
11079;DHT22;5592;49.234;7.268;2023-04-24T15:46:07;12.70;99.90
11079;DHT22;5592;49.234;7.268;2023-04-24T15:48:33;12.70;99.90
11079;DHT22;5592;49.234;7.268;2023-04-24T15:50:58;12.90;99.90
11079;DHT22;5592;49.234;7.268;2023-04-24T15:53:24;13.10;99.90
11079;DHT22;5592;49.234;7.268;2023-04-24T15:55:51;13.10;99.90
11079;DHT22;5592;49.234;7.268;2023-04-24T15:58:18;12.90;99.90
11079;DHT22;5592;49.234;7.268;2023-04-24T16:00:44;12.90;99.90
11079;DHT22;5592;49.234;7.268;2023-04-24T16:03:10;12.70;99.90
11079;DHT22;5592;49.234;7.268;2023-04-24T16:05:36;12.80;99.90
11079;DHT22;5592;49.234;7.268;2023-04-24T16:08:04;12.80;99.90
11079;DHT22;5592;49.234;7.268;2023-04-24T16:10:30;12.70;99.90
11079;DHT22;5592;49.234;7.268;2023-04-24T16:12:56;12.40;99.90
11079;DHT22;5592;49.234;7.268;2023-04-24T16:15:22;12.20;99.90
11079;DHT22;5592;49.234;7.268;2023-04-24T16:17:48;12.00;99.90